Time;durP1;ratioP1;P1;durP2;ratioP2;P2;SDS_P1;SDS_P2;PMS_P1;PMS_P2;Temp;Humidity;BMP_temperature;BMP_pressure;BME280_temperature;BME280_humidity;BME280_pressure;Samples;Min_cycle;Max_cycle;Signal;HPM_P1;HPM_P2
2022/07/11 00:02:07;;;;;;;1.55;0.93;;;;;;;;;;5164118;27;20549;-68
2022/07/11 00:04:34;;;;;;;5.45;1.67;;;;;;;;;;5164210;27;20200;-68
2022/07/11 00:07:02;;;;;;;1.85;1.20;;;;;;;;;;5163586;27;20214;-68
2022/07/11 00:09:28;;;;;;;2.05;1.23;;;;;;;;;;5164096;27;20418;-68
2022/07/11 00:11:54;;;;;;;3.80;1.13;;;;;;;;;;5164456;27;20193;-68
2022/07/11 00:14:21;;;;;;;1.38;1.17;;;;;;;;;;5164151;27;20238;-68
2022/07/11 00:16:48;;;;;;;1.48;1.23;;;;;;;;;;5163941;27;20350;-68
2022/07/11 00:19:14;;;;;;;1.50;1.20;;;;;;;;;;5163989;27;20194;-68
2022/07/11 00:21:40;;;;;;;0.85;0.75;;;;;;;;;;5164029;27;20759;-68
2022/07/11 00:24:08;;;;;;;1.70;1.15;;;;;;;;;;5164255;27;20238;-68
2022/07/11 00:26:34;;;;;;;3.17;0.98;;;;;;;;;;5163995;27;20516;-68
2022/07/11 00:29:01;;;;;;;3.95;1.15;;;;;;;;;;5163953;27;20238;-68
2022/07/11 00:31:27;;;;;;;1.33;1.23;;;;;;;;;;5164016;27;20545;-68
2022/07/11 00:33:54;;;;;;;3.10;1.15;;;;;;;;;;5163835;27;20193;-70
2022/07/11 00:36:20;;;;;;;2.63;1.20;;;;;;;;;;5163643;27;20276;-70
2022/07/11 00:38:46;;;;;;;1.38;1.17;;;;;;;;;;5164036;27;20193;-69
2022/07/11 00:41:14;;;;;;;2.80;1.35;;;;;;;;;;5163913;27;20194;-68
2022/07/11 00:43:41;;;;;;;2.45;1.30;;;;;;;;;;5163872;27;20194;-68
2022/07/11 00:46:08;;;;;;;2.95;1.17;;;;;;;;;;5163597;27;20209;-68
2022/07/11 00:48:35;;;;;;;5.07;1.50;;;;;;;;;;5163669;27;20384;-68
2022/07/11 00:51:02;;;;;;;2.17;0.80;;;;;;;;;;5163878;27;20225;-68
2022/07/11 00:53:29;;;;;;;3.38;1.10;;;;;;;;;;5163596;27;20193;-68
2022/07/11 00:55:55;;;;;;;5.90;1.58;;;;;;;;;;5163748;27;20239;-68
2022/07/11 00:58:23;;;;;;;4.70;1.20;;;;;;;;;;5163637;27;20384;-68
2022/07/11 01:00:50;;;;;;;3.05;1.50;;;;;;;;;;5163598;27;20226;-68
2022/07/11 01:03:16;;;;;;;1.52;1.30;;;;;;;;;;5163598;27;20234;-68
2022/07/11 01:05:43;;;;;;;2.30;1.35;;;;;;;;;;5163436;27;20214;-68
2022/07/11 01:08:09;;;;;;;2.95;1.23;;;;;;;;;;5163352;27;20197;-68
2022/07/11 01:10:35;;;;;;;2.60;1.52;;;;;;;;;;5163607;27;20216;-68
2022/07/11 01:13:02;;;;;;;1.58;0.90;;;;;;;;;;5163593;27;20430;-68
2022/07/11 01:15:29;;;;;;;1.42;1.10;;;;;;;;;;5166402;27;20275;-68
2022/07/11 01:17:56;;;;;;;3.50;1.27;;;;;;;;;;5167099;27;20194;-68
2022/07/11 01:20:23;;;;;;;1.38;0.95;;;;;;;;;;5167401;27;20227;-68
2022/07/11 01:22:52;;;;;;;3.60;1.15;;;;;;;;;;5167269;27;20202;-68
2022/07/11 01:25:30;;;;;;;1.48;1.38;;;;;;;;;;5167257;27;20197;-68
2022/07/11 01:27:57;;;;;;;2.30;0.90;;;;;;;;;;5166938;27;20193;-68
2022/07/11 01:30:23;;;;;;;1.90;1.27;;;;;;;;;;5166953;27;20209;-68
2022/07/11 01:32:51;;;;;;;1.55;1.10;;;;;;;;;;5166327;27;20501;-70
2022/07/11 01:35:17;;;;;;;1.33;1.20;;;;;;;;;;5167051;27;20208;-70
2022/07/11 01:37:43;;;;;;;3.03;1.42;;;;;;;;;;5166539;27;20194;-68
2022/07/11 01:40:10;;;;;;;1.00;0.93;;;;;;;;;;5166810;27;20190;-68
2022/07/11 01:42:38;;;;;;;1.00;1.00;;;;;;;;;;5166699;27;20215;-68
2022/07/11 01:45:05;;;;;;;5.28;1.10;;;;;;;;;;5166728;27;20205;-68
2022/07/11 01:47:31;;;;;;;2.97;1.20;;;;;;;;;;5166377;27;20194;-68
2022/07/11 01:49:57;;;;;;;2.13;1.10;;;;;;;;;;5166799;27;20193;-68
2022/07/11 01:52:23;;;;;;;1.65;1.38;;;;;;;;;;5166560;27;20201;-68
2022/07/11 01:54:50;;;;;;;1.95;1.10;;;;;;;;;;5166578;27;20193;-68
2022/07/11 01:57:16;;;;;;;1.30;1.00;;;;;;;;;;5166255;27;20193;-68
2022/07/11 01:59:43;;;;;;;1.65;1.00;;;;;;;;;;5166886;27;20193;-68
2022/07/11 02:02:10;;;;;;;1.65;1.20;;;;;;;;;;5166289;27;20193;-68
2022/07/11 02:04:36;;;;;;;1.17;1.00;;;;;;;;;;5166270;27;20304;-68
2022/07/11 02:07:02;;;;;;;2.88;1.17;;;;;;;;;;5166047;27;20201;-68
2022/07/11 02:09:28;;;;;;;2.78;1.30;;;;;;;;;;5166410;27;20356;-68
2022/07/11 02:11:55;;;;;;;1.20;0.95;;;;;;;;;;5166138;27;20586;-68
2022/07/11 02:14:21;;;;;;;2.08;1.20;;;;;;;;;;5166116;27;20509;-68
2022/07/11 02:16:49;;;;;;;2.45;1.30;;;;;;;;;;5166042;27;20506;-68
2022/07/11 02:19:15;;;;;;;2.33;1.05;;;;;;;;;;5166182;27;20197;-68
2022/07/11 02:21:42;;;;;;;1.13;1.00;;;;;;;;;;5166151;27;20194;-68
2022/07/11 02:24:08;;;;;;;4.22;1.10;;;;;;;;;;5166166;27;20197;-68
2022/07/11 02:26:34;;;;;;;3.85;1.30;;;;;;;;;;5165746;27;20221;-68
2022/07/11 02:29:01;;;;;;;1.80;0.90;;;;;;;;;;5165876;27;20198;-68
2022/07/11 02:31:27;;;;;;;2.75;1.17;;;;;;;;;;5165969;27;20217;-68
2022/07/11 02:33:55;;;;;;;1.67;0.98;;;;;;;;;;5165925;27;20198;-68
2022/07/11 02:36:21;;;;;;;1.17;1.08;;;;;;;;;;5165620;27;20238;-68
2022/07/11 02:38:47;;;;;;;1.42;1.13;;;;;;;;;;5165792;27;20197;-68
2022/07/11 02:41:13;;;;;;;2.85;1.20;;;;;;;;;;5165666;27;20494;-68
2022/07/11 02:43:40;;;;;;;3.50;1.05;;;;;;;;;;5165944;27;20198;-68
2022/07/11 02:46:06;;;;;;;1.75;1.20;;;;;;;;;;5165604;27;20497;-68
2022/07/11 02:48:32;;;;;;;1.25;1.15;;;;;;;;;;5165651;27;20234;-68
2022/07/11 02:51:00;;;;;;;1.15;1.05;;;;;;;;;;5165385;27;20218;-68
2022/07/11 02:53:27;;;;;;;3.17;1.30;;;;;;;;;;5165387;27;20194;-68
2022/07/11 02:55:54;;;;;;;3.17;1.20;;;;;;;;;;5165349;27;20194;-68
2022/07/11 02:58:20;;;;;;;1.65;1.00;;;;;;;;;;5165251;27;20206;-68
2022/07/11 03:00:46;;;;;;;2.72;1.08;;;;;;;;;;5165466;27;20189;-68
2022/07/11 03:03:13;;;;;;;1.77;1.33;;;;;;;;;;5165365;27;20194;-68
2022/07/11 03:05:39;;;;;;;1.52;1.20;;;;;;;;;;5165124;27;20213;-68
2022/07/11 03:08:07;;;;;;;1.08;1.00;;;;;;;;;;5164858;27;20198;-68
2022/07/11 03:10:34;;;;;;;1.95;1.20;;;;;;;;;;5164734;27;20217;-68
2022/07/11 03:13:00;;;;;;;1.00;1.00;;;;;;;;;;5165557;27;20197;-68
2022/07/11 03:15:27;;;;;;;3.15;1.20;;;;;;;;;;5165199;27;20194;-68
2022/07/11 03:17:53;;;;;;;1.10;1.02;;;;;;;;;;5164875;27;20197;-68
2022/07/11 03:20:19;;;;;;;1.98;1.17;;;;;;;;;;5164990;27;20193;-68
2022/07/11 03:22:45;;;;;;;3.28;1.50;;;;;;;;;;5164950;27;20194;-68
2022/07/11 03:25:13;;;;;;;1.83;1.50;;;;;;;;;;5164746;27;20247;-68
2022/07/11 03:27:39;;;;;;;4.50;2.50;;;;;;;;;;5164845;27;20249;-68
2022/07/11 03:30:06;;;;;;;2.90;1.90;;;;;;;;;;5164656;27;20414;-68
2022/07/11 03:32:32;;;;;;;3.53;1.45;;;;;;;;;;5164740;27;20237;-68
2022/07/11 03:37:42;;;;;;;1.60;1.45;;;;;;;;;;5163904;27;20193;-68
2022/07/11 03:40:09;;;;;;;2.95;1.50;;;;;;;;;;5164612;27;20201;-68
2022/07/11 03:42:36;;;;;;;2.88;1.25;;;;;;;;;;5164852;27;20481;-68
2022/07/11 03:45:03;;;;;;;3.60;1.58;;;;;;;;;;5164663;27;20238;-68
2022/07/11 03:47:29;;;;;;;2.58;1.40;;;;;;;;;;5164227;27;20219;-69
2022/07/11 03:49:55;;;;;;;1.80;1.20;;;;;;;;;;5164442;27;20429;-68
2022/07/11 03:52:22;;;;;;;3.75;1.70;;;;;;;;;;5164174;27;20380;-69
2022/07/11 03:54:48;;;;;;;4.05;1.58;;;;;;;;;;5164584;27;20421;-69
2022/07/11 03:57:14;;;;;;;1.52;1.20;;;;;;;;;;5164333;27;20194;-69
2022/07/11 03:59:42;;;;;;;2.30;1.42;;;;;;;;;;5164369;27;20200;-69
2022/07/11 04:02:08;;;;;;;4.25;1.27;;;;;;;;;;5164348;27;20194;-69
2022/07/11 04:04:34;;;;;;;1.90;1.35;;;;;;;;;;5164145;27;20313;-69
2022/07/11 04:07:00;;;;;;;1.70;1.30;;;;;;;;;;5163616;27;20208;-69
2022/07/11 04:09:27;;;;;;;1.55;1.45;;;;;;;;;;5164125;27;20208;-69
2022/07/11 04:11:53;;;;;;;1.55;1.45;;;;;;;;;;5164199;27;20613;-68
2022/07/11 04:14:19;;;;;;;4.35;1.42;;;;;;;;;;5164324;27;20647;-69
2022/07/11 04:16:47;;;;;;;1.92;1.40;;;;;;;;;;5163812;27;20494;-68
2022/07/11 04:19:13;;;;;;;4.85;1.42;;;;;;;;;;5164157;27;20269;-68
2022/07/11 04:21:39;;;;;;;7.80;1.58;;;;;;;;;;5163922;27;20307;-68
2022/07/11 04:24:06;;;;;;;3.13;1.33;;;;;;;;;;5164214;27;20384;-68
2022/07/11 04:26:32;;;;;;;1.45;1.20;;;;;;;;;;5163873;27;20254;-68
2022/07/11 04:28:58;;;;;;;1.45;1.20;;;;;;;;;;5164089;27;20239;-68
2022/07/11 04:31:25;;;;;;;2.72;1.52;;;;;;;;;;5163829;27;20213;-68
2022/07/11 04:33:53;;;;;;;2.65;1.67;;;;;;;;;;5164012;27;20228;-68
2022/07/11 04:36:19;;;;;;;1.63;1.15;;;;;;;;;;5163701;27;20205;-68
2022/07/11 04:38:45;;;;;;;2.03;1.42;;;;;;;;;;5164122;27;20208;-68
2022/07/11 04:41:11;;;;;;;4.70;1.58;;;;;;;;;;5164134;27;20190;-68
2022/07/11 04:43:38;;;;;;;1.85;1.10;;;;;;;;;;5163937;27;20230;-68
2022/07/11 04:46:04;;;;;;;2.47;1.40;;;;;;;;;;5163771;27;20371;-68
2022/07/11 04:48:31;;;;;;;3.63;1.35;;;;;;;;;;5163727;27;20194;-68
2022/07/11 04:50:58;;;;;;;2.55;1.30;;;;;;;;;;5167638;27;20198;-68
2022/07/11 04:53:25;;;;;;;1.33;1.23;;;;;;;;;;5167759;27;20238;-68
2022/07/11 04:55:51;;;;;;;3.67;1.20;;;;;;;;;;5167686;27;20193;-68
2022/07/11 04:58:17;;;;;;;2.15;1.33;;;;;;;;;;5167666;27;20194;-68
2022/07/11 05:00:43;;;;;;;2.25;1.42;;;;;;;;;;5167591;27;20238;-68
2022/07/11 05:03:10;;;;;;;2.05;1.27;;;;;;;;;;5167991;27;20227;-68
2022/07/11 05:05:36;;;;;;;3.47;2.15;;;;;;;;;;5167715;27;20258;-68
2022/07/11 05:08:04;;;;;;;2.78;1.02;;;;;;;;;;5167443;27;20569;-68
2022/07/11 05:10:31;;;;;;;4.53;1.35;;;;;;;;;;5167206;27;20193;-68
2022/07/11 05:12:57;;;;;;;3.72;1.60;;;;;;;;;;5167545;27;20274;-68
2022/07/11 05:15:23;;;;;;;2.97;1.48;;;;;;;;;;5167366;27;20198;-68
2022/07/11 05:17:49;;;;;;;3.83;1.42;;;;;;;;;;5167020;27;20536;-68
2022/07/11 05:20:16;;;;;;;3.90;1.55;;;;;;;;;;5167115;27;20198;-68
2022/07/11 05:22:42;;;;;;;5.15;2.10;;;;;;;;;;5167053;27;20189;-68
2022/07/11 05:25:10;;;;;;;4.95;2.40;;;;;;;;;;5167109;27;20546;-68
2022/07/11 05:27:36;;;;;;;6.13;1.95;;;;;;;;;;5166280;27;20542;-69
2022/07/11 05:30:02;;;;;;;5.97;2.20;;;;;;;;;;5166633;27;20197;-69
2022/07/11 05:32:29;;;;;;;5.93;2.13;;;;;;;;;;5166836;27;20262;-69
2022/07/11 05:34:56;;;;;;;5.07;2.33;;;;;;;;;;5166822;27;20231;-69
2022/07/11 05:37:23;;;;;;;5.78;1.80;;;;;;;;;;5166558;27;20216;-69
2022/07/11 05:39:50;;;;;;;3.53;1.60;;;;;;;;;;5166712;27;20231;-69
2022/07/11 05:42:18;;;;;;;2.78;1.48;;;;;;;;;;5166673;27;20197;-69
2022/07/11 05:44:44;;;;;;;3.72;1.80;;;;;;;;;;5166539;27;20194;-69
2022/07/11 05:47:10;;;;;;;9.63;1.77;;;;;;;;;;5166300;27;20194;-69
2022/07/11 05:49:37;;;;;;;1.73;1.63;;;;;;;;;;5166655;27;20388;-69
2022/07/11 05:52:03;;;;;;;2.45;1.40;;;;;;;;;;5166793;27;20216;-69
2022/07/11 05:54:29;;;;;;;2.75;1.20;;;;;;;;;;5166412;27;20194;-69
2022/07/11 05:56:55;;;;;;;3.83;1.20;;;;;;;;;;5166108;27;20205;-68
2022/07/11 05:59:23;;;;;;;2.40;1.63;;;;;;;;;;5166187;27;20194;-68
2022/07/11 06:01:49;;;;;;;1.20;1.10;;;;;;;;;;5166112;27;20189;-68
2022/07/11 06:04:16;;;;;;;4.13;1.60;;;;;;;;;;5166350;27;20186;-68
2022/07/11 06:06:42;;;;;;;3.70;1.95;;;;;;;;;;5165503;27;20258;-60
2022/07/11 06:09:08;;;;;;;5.25;3.58;;;;;;;;;;5165814;27;20570;-61
2022/07/11 06:11:34;;;;;;;3.60;2.03;;;;;;;;;;5145570;27;20522;-61
2022/07/11 06:14:01;;;;;;;3.80;1.85;;;;;;;;;;5151027;27;20252;-61
2022/07/11 06:16:28;;;;;;;5.13;2.78;;;;;;;;;;5157946;27;20206;-61
2022/07/11 06:18:55;;;;;;;1.73;1.55;;;;;;;;;;5146254;27;20245;-61
2022/07/11 06:21:21;;;;;;;3.80;1.70;;;;;;;;;;5137347;27;20210;-61
2022/07/11 06:23:47;;;;;;;2.47;1.98;;;;;;;;;;5142516;27;20266;-61
2022/07/11 06:26:15;;;;;;;4.35;2.47;;;;;;;;;;5157453;27;20217;-62
2022/07/11 06:28:41;;;;;;;4.28;1.95;;;;;;;;;;5152398;27;20449;-61
2022/07/11 06:31:08;;;;;;;4.78;1.85;;;;;;;;;;5142838;27;20206;-62
2022/07/11 06:33:36;;;;;;;3.42;2.00;;;;;;;;;;5136793;27;20222;-62
2022/07/11 06:36:02;;;;;;;3.95;2.15;;;;;;;;;;5136916;27;20251;-62
2022/07/11 06:38:29;;;;;;;4.97;2.33;;;;;;;;;;5137082;27;20512;-61
2022/07/11 06:40:55;;;;;;;2.95;2.10;;;;;;;;;;5142233;27;20237;-63
2022/07/11 06:43:22;;;;;;;3.20;1.92;;;;;;;;;;5146430;27;20217;-61
2022/07/11 06:45:48;;;;;;;3.25;2.55;;;;;;;;;;5136696;27;20218;-61
2022/07/11 06:48:15;;;;;;;3.22;1.73;;;;;;;;;;5136413;27;20408;-61
2022/07/11 06:50:42;;;;;;;1.98;1.80;;;;;;;;;;5150204;27;20381;-62
2022/07/11 06:53:09;;;;;;;1.63;1.52;;;;;;;;;;5156961;27;20233;-63
2022/07/11 06:55:35;;;;;;;5.15;1.60;;;;;;;;;;5157767;27;20568;-62
2022/07/11 06:58:02;;;;;;;3.83;2.13;;;;;;;;;;5157105;27;20230;-62
2022/07/11 07:00:29;;;;;;;4.18;2.00;;;;;;;;;;5136937;27;20646;-62
2022/07/11 07:02:56;;;;;;;4.47;1.73;;;;;;;;;;5155612;27;20206;-61
2022/07/11 07:05:22;;;;;;;4.00;2.03;;;;;;;;;;5156164;27;20266;-62
2022/07/11 07:07:49;;;;;;;3.90;1.48;;;;;;;;;;5156965;27;20268;-62
2022/07/11 07:10:16;;;;;;;1.85;1.75;;;;;;;;;;5155168;27;20209;-61
2022/07/11 07:12:42;;;;;;;5.45;2.30;;;;;;;;;;5138054;27;20233;-61
2022/07/11 07:15:09;;;;;;;2.08;1.88;;;;;;;;;;5143880;27;20263;-61
2022/07/11 07:17:35;;;;;;;1.75;1.65;;;;;;;;;;5152722;27;20210;-61
2022/07/11 07:20:01;;;;;;;1.83;1.73;;;;;;;;;;5139402;27;20215;-62
2022/07/11 07:22:28;;;;;;;5.90;2.08;;;;;;;;;;5139958;27;20407;-61
2022/07/11 07:24:55;;;;;;;1.95;1.77;;;;;;;;;;5135693;27;20254;-61
2022/07/11 07:27:21;;;;;;;5.00;2.22;;;;;;;;;;5145484;27;20217;-61
2022/07/11 07:29:48;;;;;;;1.67;1.58;;;;;;;;;;5156416;27;20462;-61
2022/07/11 07:32:14;;;;;;;2.75;1.75;;;;;;;;;;5139985;27;20233;-62
2022/07/11 07:34:41;;;;;;;2.53;1.60;;;;;;;;;;5148256;27;20588;-62
2022/07/11 07:37:07;;;;;;;2.92;1.90;;;;;;;;;;5155993;27;20213;-61
2022/07/11 07:39:33;;;;;;;2.63;1.98;;;;;;;;;;5155712;27;20216;-60
2022/07/11 07:42:01;;;;;;;2.97;1.80;;;;;;;;;;5154985;27;20263;-60
2022/07/11 07:44:27;;;;;;;1.90;1.80;;;;;;;;;;5151622;27;20217;-62
2022/07/11 07:46:54;;;;;;;1.80;1.70;;;;;;;;;;5155740;27;20210;-61
2022/07/11 07:49:20;;;;;;;1.60;1.50;;;;;;;;;;5156142;27;20216;-62
2022/07/11 07:51:46;;;;;;;1.80;1.70;;;;;;;;;;5154486;27;20317;-60
2022/07/11 07:54:13;;;;;;;1.70;1.55;;;;;;;;;;5155861;27;20573;-62
2022/07/11 07:56:39;;;;;;;1.70;1.60;;;;;;;;;;5155512;27;20210;-62
2022/07/11 07:59:07;;;;;;;1.30;1.25;;;;;;;;;;5143474;27;20343;-62
2022/07/11 08:01:35;;;;;;;1.50;1.50;;;;;;;;;;5151433;27;20216;-61
2022/07/11 08:04:01;;;;;;;1.85;1.13;;;;;;;;;;5134562;27;20206;-61
2022/07/11 08:06:27;;;;;;;1.20;1.10;;;;;;;;;;5134966;27;20543;-62
2022/07/11 08:08:53;;;;;;;1.20;1.20;;;;;;;;;;5136489;27;20210;-62
2022/07/11 08:11:20;;;;;;;2.15;1.42;;;;;;;;;;5155017;27;20230;-61
2022/07/11 08:13:46;;;;;;;1.83;1.17;;;;;;;;;;5154261;27;20232;-60
2022/07/11 08:16:14;;;;;;;2.97;1.10;;;;;;;;;;5135020;27;20216;-61
2022/07/11 08:18:40;;;;;;;3.97;1.08;;;;;;;;;;5151734;27;20215;-60
2022/07/11 08:21:06;;;;;;;1.35;1.20;;;;;;;;;;5142803;27;20217;-60
2022/07/11 08:23:32;;;;;;;1.50;1.20;;;;;;;;;;5135950;27;20230;-62
2022/07/11 08:25:59;;;;;;;1.80;1.10;;;;;;;;;;5138941;27;20520;-61
2022/07/11 08:28:25;;;;;;;1.52;1.02;;;;;;;;;;5138688;27;20210;-61
2022/07/11 08:30:51;;;;;;;0.77;0.77;;;;;;;;;;5138489;27;20271;-61
2022/07/11 08:33:19;;;;;;;0.80;0.73;;;;;;;;;;5138086;27;20230;-61
2022/07/11 08:35:45;;;;;;;0.65;0.65;;;;;;;;;;5147467;27;20209;-61
2022/07/11 08:38:11;;;;;;;0.85;0.85;;;;;;;;;;5147771;27;20210;-60
2022/07/11 08:40:38;;;;;;;1.90;0.60;;;;;;;;;;5138563;27;20218;-61
2022/07/11 08:43:11;;;;;;;1.52;0.73;;;;;;;;;;5138684;27;20207;-61
2022/07/11 08:45:38;;;;;;;0.52;0.52;;;;;;;;;;5155981;27;20274;-62
2022/07/11 08:48:05;;;;;;;2.33;2.15;;;;;;;;;;5159498;27;20209;-62
2022/07/11 08:50:32;;;;;;;0.60;0.60;;;;;;;;;;5159067;27;20541;-62
2022/07/11 08:52:59;;;;;;;2.38;0.77;;;;;;;;;;5155334;27;20229;-61
2022/07/11 08:55:25;;;;;;;0.80;0.80;;;;;;;;;;5140947;27;20244;-61
2022/07/11 08:57:52;;;;;;;2.95;1.05;;;;;;;;;;5150395;27;20502;-61
2022/07/11 09:00:19;;;;;;;4.38;0.90;;;;;;;;;;5158764;27;20244;-62
2022/07/11 09:02:46;;;;;;;0.95;0.50;;;;;;;;;;5158338;27;20513;-60
2022/07/11 09:05:12;;;;;;;0.80;0.80;;;;;;;;;;5152106;27;20226;-61
2022/07/11 09:07:43;;;;;;;0.50;0.50;;;;;;;;;;5138524;27;20240;-61
2022/07/11 09:10:10;;;;;;;0.77;0.77;;;;;;;;;;5138181;27;20252;-61
2022/07/11 09:12:36;;;;;;;0.60;0.60;;;;;;;;;;5138579;27;20230;-61
2022/07/11 09:15:02;;;;;;;0.70;0.70;;;;;;;;;;5150479;27;20214;-61
2022/07/11 09:17:30;;;;;;;1.38;0.50;;;;;;;;;;5155260;27;20210;-61
2022/07/11 09:19:56;;;;;;;1.20;0.60;;;;;;;;;;5153654;27;20210;-60
2022/07/11 09:25:30;;;;;;;0.50;0.50;;;;;;;;;;5158581;27;20258;-60
2022/07/11 09:28:00;;;;;;;0.70;0.70;;;;;;;;;;5151055;27;20217;-60
2022/07/11 09:30:28;;;;;;;1.50;0.50;;;;;;;;;;5154904;27;20217;-61
2022/07/11 09:32:55;;;;;;;2.67;0.60;;;;;;;;;;5137607;27;20321;-60
2022/07/11 09:35:22;;;;;;;0.60;0.60;;;;;;;;;;5136442;27;20202;-61
2022/07/11 09:37:48;;;;;;;1.48;0.70;;;;;;;;;;5151240;27;20407;-60
2022/07/11 09:40:17;;;;;;;0.65;0.50;;;;;;;;;;5158120;27;20209;-61
2022/07/11 09:42:46;;;;;;;0.40;0.40;;;;;;;;;;5157511;27;20216;-61
2022/07/11 09:45:13;;;;;;;2.72;0.50;;;;;;;;;;5157784;27;20390;-63
2022/07/11 09:47:43;;;;;;;0.52;0.30;;;;;;;;;;5157097;27;20232;-60
2022/07/11 09:50:09;;;;;;;0.52;0.52;;;;;;;;;;5140297;27;20218;-61
2022/07/11 09:52:36;;;;;;;0.50;0.50;;;;;;;;;;5137380;27;20339;-62
2022/07/11 09:55:04;;;;;;;1.17;0.50;;;;;;;;;;5136232;27;20509;-62
2022/07/11 09:57:32;;;;;;;2.53;0.70;;;;;;;;;;5153178;27;20220;-62
2022/07/11 09:59:59;;;;;;;4.00;0.68;;;;;;;;;;5137578;27;20661;-61
2022/07/11 10:02:26;;;;;;;0.68;0.68;;;;;;;;;;5139322;27;20209;-61
2022/07/11 10:04:52;;;;;;;1.45;0.50;;;;;;;;;;5154585;27;20452;-61
2022/07/11 10:07:18;;;;;;;0.98;0.60;;;;;;;;;;5147217;27;20499;-61
2022/07/11 10:09:45;;;;;;;2.47;0.90;;;;;;;;;;5156516;27;20210;-61
2022/07/11 10:12:11;;;;;;;0.95;0.80;;;;;;;;;;5157228;27;20250;-62
2022/07/11 10:14:39;;;;;;;0.60;0.60;;;;;;;;;;5158157;27;20548;-64
2022/07/11 10:17:08;;;;;;;2.40;0.60;;;;;;;;;;5140443;27;20206;-61
2022/07/11 10:19:44;;;;;;;15.57;2.00;;;;;;;;;;5153890;27;20254;-61
2022/07/11 10:22:16;;;;;;;0.80;0.80;;;;;;;;;;5156919;27;20542;-63
2022/07/11 10:24:46;;;;;;;0.65;0.63;;;;;;;;;;5156799;27;20205;-63
2022/07/11 10:27:17;;;;;;;2.63;0.98;;;;;;;;;;5155903;27;20231;-63
2022/07/11 10:29:46;;;;;;;3.50;1.08;;;;;;;;;;5141082;27;20209;-63
2022/07/11 10:32:13;;;;;;;1.27;0.98;;;;;;;;;;5156457;27;20225;-63
2022/07/11 10:34:39;;;;;;;1.95;0.77;;;;;;;;;;5152414;27;20228;-63
2022/07/11 10:37:07;;;;;;;0.68;0.68;;;;;;;;;;5157468;27;20209;-63
2022/07/11 10:39:34;;;;;;;0.50;0.50;;;;;;;;;;5153237;27;20213;-63
2022/07/11 10:42:02;;;;;;;1.00;0.88;;;;;;;;;;5136639;27;20202;-63
2022/07/11 10:44:29;;;;;;;1.88;0.77;;;;;;;;;;5136051;27;20217;-63
2022/07/11 10:46:56;;;;;;;1.23;0.90;;;;;;;;;;5142683;27;20232;-63
2022/07/11 10:49:31;;;;;;;2.28;0.90;;;;;;;;;;5146615;27;20620;-63
2022/07/11 10:52:00;;;;;;;1.27;0.90;;;;;;;;;;5155629;27;20265;-63
2022/07/11 10:54:31;;;;;;;0.98;0.60;;;;;;;;;;5143230;27;20321;-63
2022/07/11 10:56:59;;;;;;;0.55;0.55;;;;;;;;;;5148452;27;20218;-63
2022/07/11 10:59:25;;;;;;;1.95;0.73;;;;;;;;;;5145391;27;20230;-63
2022/07/11 11:02:03;;;;;;;1.65;0.60;;;;;;;;;;5148037;27;20231;-63
2022/07/11 11:04:42;;;;;;;0.80;0.60;;;;;;;;;;5135629;27;20237;-63
2022/07/11 11:07:27;;;;;;;1.13;0.77;;;;;;;;;;5144423;27;20247;-63
2022/07/11 11:09:53;;;;;;;0.50;0.50;;;;;;;;;;5135327;27;20222;-63
2022/07/11 11:12:20;;;;;;;0.65;0.65;;;;;;;;;;5147789;27;20213;-63
2022/07/11 11:14:46;;;;;;;1.27;0.70;;;;;;;;;;5136104;27;20410;-63
2022/07/11 11:17:31;;;;;;;0.80;0.80;;;;;;;;;;5136202;27;20219;-63
2022/07/11 11:19:58;;;;;;;0.68;0.68;;;;;;;;;;5149176;27;20266;-63
2022/07/11 11:22:25;;;;;;;2.60;0.88;;;;;;;;;;5134651;27;20206;-62
2022/07/11 11:24:53;;;;;;;0.60;0.60;;;;;;;;;;5135475;27;20206;-60
2022/07/11 11:27:21;;;;;;;1.48;1.00;;;;;;;;;;5147933;27;20213;-61
2022/07/11 11:29:48;;;;;;;0.60;0.60;;;;;;;;;;5141068;27;20213;-62
2022/07/11 11:32:14;;;;;;;3.42;0.80;;;;;;;;;;5154747;27;20213;-62
2022/07/11 11:34:41;;;;;;;0.60;0.60;;;;;;;;;;5151650;27;20568;-61
2022/07/11 11:37:09;;;;;;;0.60;0.60;;;;;;;;;;5156252;27;20404;-62
2022/07/11 11:39:36;;;;;;;0.73;0.60;;;;;;;;;;5144487;27;20209;-63
2022/07/11 11:42:06;;;;;;;2.13;0.73;;;;;;;;;;5155791;27;20284;-62
2022/07/11 11:44:33;;;;;;;1.45;0.70;;;;;;;;;;5151602;27;20353;-63
2022/07/11 11:46:59;;;;;;;1.67;0.60;;;;;;;;;;5155694;27;20227;-61
2022/07/11 11:49:25;;;;;;;0.60;0.60;;;;;;;;;;5156129;27;20412;-61
2022/07/11 11:51:54;;;;;;;0.80;0.80;;;;;;;;;;5154863;27;20205;-61
2022/07/11 11:54:25;;;;;;;0.85;0.85;;;;;;;;;;5140765;27;20262;-61
2022/07/11 11:56:52;;;;;;;1.33;0.85;;;;;;;;;;5145590;27;20314;-61
2022/07/11 11:59:18;;;;;;;1.08;0.70;;;;;;;;;;5151129;27;20272;-61
2022/07/11 12:01:45;;;;;;;3.13;0.70;;;;;;;;;;5137409;27;20380;-61
2022/07/11 12:04:12;;;;;;;1.05;0.82;;;;;;;;;;5133893;27;20210;-61
2022/07/11 12:06:40;;;;;;;2.72;0.93;;;;;;;;;;5152683;27;20228;-61
2022/07/11 12:09:09;;;;;;;0.80;0.70;;;;;;;;;;5143366;27;20233;-61
2022/07/11 12:11:37;;;;;;;0.60;0.60;;;;;;;;;;5135100;27;20381;-61
2022/07/11 12:14:05;;;;;;;24.25;18.73;;;;;;;;;;5134116;27;20424;-61
2022/07/11 12:16:41;;;;;;;1.10;1.00;;;;;;;;;;5135065;27;20214;-61
2022/07/11 12:19:08;;;;;;;2.22;0.68;;;;;;;;;;5135700;27;20516;-61
2022/07/11 12:21:35;;;;;;;1.55;0.88;;;;;;;;;;5151951;27;20209;-61
2022/07/11 12:24:02;;;;;;;0.80;0.80;;;;;;;;;;5143904;27;20227;-61
2022/07/11 12:26:29;;;;;;;1.55;0.70;;;;;;;;;;5139024;27;20273;-60
2022/07/11 12:29:08;;;;;;;2.67;0.85;;;;;;;;;;5135068;27;20243;-61
2022/07/11 12:31:44;;;;;;;2.28;0.80;;;;;;;;;;5135266;27;20380;-62
2022/07/11 12:34:10;;;;;;;0.70;0.70;;;;;;;;;;5152414;27;20228;-63
2022/07/11 12:36:36;;;;;;;0.70;0.70;;;;;;;;;;5155532;27;20513;-62
2022/07/11 12:39:04;;;;;;;0.90;0.90;;;;;;;;;;5151777;27;20236;-62
2022/07/11 12:41:30;;;;;;;1.48;0.90;;;;;;;;;;5135037;27;20210;-60
2022/07/11 12:46:43;;;;;;;0.80;0.80;;;;;;;;;;5134679;27;20243;-60
2022/07/11 12:49:10;;;;;;;0.82;0.80;;;;;;;;;;5155859;27;20436;-63
2022/07/11 12:51:39;;;;;;;1.10;1.00;;;;;;;;;;5147016;27;20210;-61
2022/07/11 12:54:06;;;;;;;0.70;0.70;;;;;;;;;;5134759;27;20257;-60
2022/07/11 12:56:32;;;;;;;0.98;0.90;;;;;;;;;;5141863;27;20209;-60
2022/07/11 12:58:59;;;;;;;3.05;1.00;;;;;;;;;;5155450;27;20526;-61
2022/07/11 13:01:25;;;;;;;0.85;0.85;;;;;;;;;;5155457;27;20215;-61
2022/07/11 13:03:53;;;;;;;0.90;0.90;;;;;;;;;;5154972;27;20213;-61
2022/07/11 13:08:42;;;;;;;3.33;1.00;;;;;;;;;;5139230;27;20237;-61
2022/07/11 13:09:06;;;;;;;2.05;0.88;;;;;;;;;;5147859;27;20463;-61
2022/07/11 13:11:32;;;;;;;0.82;0.80;;;;;;;;;;5150825;27;20205;-61
2022/07/11 13:13:59;;;;;;;1.13;1.10;;;;;;;;;;5138631;27;20268;-61
2022/07/11 13:16:25;;;;;;;1.85;1.10;;;;;;;;;;5141073;27;20205;-62
2022/07/11 13:18:52;;;;;;;0.93;0.93;;;;;;;;;;5138120;27;20210;-62
2022/07/11 13:21:19;;;;;;;2.05;1.08;;;;;;;;;;5138140;27;20566;-62
2022/07/11 13:23:46;;;;;;;0.90;0.90;;;;;;;;;;5152194;27;20205;-61
2022/07/11 13:26:12;;;;;;;1.10;1.10;;;;;;;;;;5141560;27;20210;-62
2022/07/11 13:28:39;;;;;;;6.03;1.13;;;;;;;;;;5137957;27;20220;-62
2022/07/11 13:31:06;;;;;;;2.25;1.42;;;;;;;;;;5138678;27;20206;-62
2022/07/11 13:33:32;;;;;;;3.80;2.63;;;;;;;;;;5144658;27;20566;-61
2022/07/11 13:36:00;;;;;;;1.85;1.40;;;;;;;;;;5158830;27;20488;-62
2022/07/11 13:38:26;;;;;;;1.10;1.10;;;;;;;;;;5157937;27;20276;-61
2022/07/11 13:40:53;;;;;;;2.80;1.00;;;;;;;;;;5158705;27;20217;-62
2022/07/11 13:43:19;;;;;;;1.17;1.17;;;;;;;;;;5158561;27;20209;-61
2022/07/11 13:45:47;;;;;;;1.30;1.20;;;;;;;;;;5158559;27;20520;-61
2022/07/11 13:48:13;;;;;;;2.78;1.17;;;;;;;;;;5144348;27;20210;-61
2022/07/11 13:50:39;;;;;;;1.13;1.08;;;;;;;;;;5138534;27;20214;-61
2022/07/11 13:53:07;;;;;;;2.50;1.00;;;;;;;;;;5138068;27;20221;-61
2022/07/11 13:55:33;;;;;;;2.95;1.40;;;;;;;;;;5142116;27;20225;-60
2022/07/11 13:58:01;;;;;;;1.40;1.30;;;;;;;;;;5137627;27;20213;-62
2022/07/11 14:00:29;;;;;;;2.90;1.83;;;;;;;;;;5148083;27;20400;-61
2022/07/11 14:02:55;;;;;;;2.78;1.23;;;;;;;;;;5137102;27;20258;-62
2022/07/11 14:05:21;;;;;;;1.30;1.20;;;;;;;;;;5138318;27;20243;-61
2022/07/11 14:07:48;;;;;;;1.15;1.15;;;;;;;;;;5137025;27;20217;-61
2022/07/11 14:10:16;;;;;;;2.60;1.40;;;;;;;;;;5137901;27;20450;-60
2022/07/11 14:12:42;;;;;;;1.95;1.50;;;;;;;;;;5144542;27;20213;-61
2022/07/11 14:15:09;;;;;;;2.92;1.10;;;;;;;;;;5138137;27;20523;-61
2022/07/11 14:17:35;;;;;;;1.00;1.00;;;;;;;;;;5137852;27;20216;-62
2022/07/11 14:20:02;;;;;;;2.58;1.08;;;;;;;;;;5137194;27;20213;-61
2022/07/11 14:22:28;;;;;;;3.08;1.20;;;;;;;;;;5138897;27;20206;-62
2022/07/11 14:24:54;;;;;;;1.55;1.23;;;;;;;;;;5139284;27;20209;-61
2022/07/11 14:27:22;;;;;;;2.63;1.20;;;;;;;;;;5143973;27;20206;-63
2022/07/11 14:29:48;;;;;;;1.35;1.25;;;;;;;;;;5145137;27;20516;-63
2022/07/11 14:32:15;;;;;;;3.78;1.58;;;;;;;;;;5145311;27;20198;-63
2022/07/11 14:34:41;;;;;;;1.40;1.30;;;;;;;;;;5145078;27;20214;-63
2022/07/11 14:37:08;;;;;;;1.58;1.02;;;;;;;;;;5144947;27;20382;-63
2022/07/11 14:39:34;;;;;;;1.15;1.08;;;;;;;;;;5145030;27;20433;-64
2022/07/11 14:42:00;;;;;;;1.20;1.20;;;;;;;;;;5144888;27;20201;-63
2022/07/11 14:44:28;;;;;;;1.95;1.40;;;;;;;;;;5143602;27;20190;-63
2022/07/11 14:46:54;;;;;;;1.65;1.52;;;;;;;;;;5143276;27;20419;-63
2022/07/11 14:49:21;;;;;;;2.60;1.60;;;;;;;;;;5143971;27;20254;-63
2022/07/11 14:51:47;;;;;;;3.15;1.35;;;;;;;;;;5144050;27;20201;-63